Stevenson, Maryland
Current Conditions -  °F | °C
As of 10:22 AM on Wednesday 26 Nov 2014 (Local Time) from KBWI Reporting Station
Moderate Snow Moderate Snow  
Wind Chill: 31°   Ceiling: 700
Heat Index: 37°   Visibility: 2.5mi
Dew Point: 36°   Wind: 8mph
Humidity: 93%   Direction: 10°N
Pressure: 30.05"   Gusts: NA
Location:  39.41°N, 76.71°W
Report Text: KBWI 261522Z 01007KT 340V050 2 1/2SM RASN BR BKN007 OVC011 03/02 A3005 RMK AO2 SNB21 PRESENT WX -SN P0007
Loading
Personal Weather Stations






























Interactive Weather Map New forecast layout! Learn more

10-Day Weather Forecast

Advertisements
Track Severe Weather on mobile